Blair, Nebraska
Current Conditions -  °F | °C
As of 9:35 AM on Saturday 20 Dec 2014 (Local Time) from KBTA Reporting Station
Haze Haze  
Wind Chill: 26°   Ceiling: 400
Heat Index: 33°   Visibility: 3mi
Dew Point: 32°   Wind: 7mph
Humidity: 96%   Direction: 160°SSE
Pressure: 30.1"   Gusts: NA
Location:  41.54°N, 96.13°W
Report Text: KBTA 201535Z AUTO 16006KT 3SM BR OVC004 00/00 A3010 RMK AO2 T00041001
Loading
Personal Weather Stations






























Interactive Weather Map New forecast layout! Learn more

10-Day Weather Forecast

Advertisements
Track Severe Weather on mobile